sensor_id;sensor_type;location;lat;lon;timestamp;P1;durP1;ratioP1;P2;durP2;ratioP2
8423;SDS011;4249;49.072;9.770;2022-12-10T00:01:41;23.33;;;16.00;;
8423;SDS011;4249;49.072;9.770;2022-12-10T00:04:29;25.27;;;15.77;;
8423;SDS011;4249;49.072;9.770;2022-12-10T00:07:16;25.33;;;15.00;;
8423;SDS011;4249;49.072;9.770;2022-12-10T00:10:04;23.50;;;15.27;;
8423;SDS011;4249;49.072;9.770;2022-12-10T00:12:55;27.10;;;16.50;;
8423;SDS011;4249;49.072;9.770;2022-12-10T00:15:42;26.77;;;15.70;;
8423;SDS011;4249;49.072;9.770;2022-12-10T00:18:29;21.83;;;15.17;;
8423;SDS011;4249;49.072;9.770;2022-12-10T00:21:18;25.33;;;16.37;;
8423;SDS011;4249;49.072;9.770;2022-12-10T00:24:06;26.73;;;16.53;;
8423;SDS011;4249;49.072;9.770;2022-12-10T00:26:54;24.93;;;15.33;;
8423;SDS011;4249;49.072;9.770;2022-12-10T00:29:43;23.53;;;15.50;;
8423;SDS011;4249;49.072;9.770;2022-12-10T00:32:30;25.40;;;16.30;;
8423;SDS011;4249;49.072;9.770;2022-12-10T00:35:18;27.20;;;16.20;;
8423;SDS011;4249;49.072;9.770;2022-12-10T00:38:05;27.63;;;16.33;;
8423;SDS011;4249;49.072;9.770;2022-12-10T00:40:52;28.07;;;17.73;;
8423;SDS011;4249;49.072;9.770;2022-12-10T00:43:41;25.27;;;16.40;;
8423;SDS011;4249;49.072;9.770;2022-12-10T00:46:30;25.30;;;16.23;;
8423;SDS011;4249;49.072;9.770;2022-12-10T00:49:17;25.07;;;15.83;;
8423;SDS011;4249;49.072;9.770;2022-12-10T00:52:08;25.40;;;16.87;;
8423;SDS011;4249;49.072;9.770;2022-12-10T00:54:56;28.87;;;18.10;;
8423;SDS011;4249;49.072;9.770;2022-12-10T00:57:43;34.17;;;19.57;;
8423;SDS011;4249;49.072;9.770;2022-12-10T01:00:30;27.00;;;17.50;;
8423;SDS011;4249;49.072;9.770;2022-12-10T01:03:19;27.67;;;16.00;;
8423;SDS011;4249;49.072;9.770;2022-12-10T01:06:07;27.53;;;15.47;;
8423;SDS011;4249;49.072;9.770;2022-12-10T01:09:00;38.53;;;22.83;;
8423;SDS011;4249;49.072;9.770;2022-12-10T01:11:50;28.50;;;17.27;;
8423;SDS011;4249;49.072;9.770;2022-12-10T01:14:38;22.07;;;14.43;;
8423;SDS011;4249;49.072;9.770;2022-12-10T01:17:26;24.93;;;15.90;;
8423;SDS011;4249;49.072;9.770;2022-12-10T01:20:14;25.27;;;16.60;;
8423;SDS011;4249;49.072;9.770;2022-12-10T01:23:01;25.73;;;16.53;;
8423;SDS011;4249;49.072;9.770;2022-12-10T01:25:49;24.80;;;16.07;;
8423;SDS011;4249;49.072;9.770;2022-12-10T01:28:38;22.90;;;14.27;;
8423;SDS011;4249;49.072;9.770;2022-12-10T01:31:27;25.93;;;16.03;;
8423;SDS011;4249;49.072;9.770;2022-12-10T01:34:15;30.90;;;17.10;;
8423;SDS011;4249;49.072;9.770;2022-12-10T01:37:04;26.40;;;15.77;;
8423;SDS011;4249;49.072;9.770;2022-12-10T01:39:51;24.23;;;15.07;;
8423;SDS011;4249;49.072;9.770;2022-12-10T01:42:38;26.13;;;15.63;;
8423;SDS011;4249;49.072;9.770;2022-12-10T01:45:27;26.83;;;15.77;;
8423;SDS011;4249;49.072;9.770;2022-12-10T01:48:15;25.73;;;16.53;;
8423;SDS011;4249;49.072;9.770;2022-12-10T01:51:02;27.80;;;17.13;;
8423;SDS011;4249;49.072;9.770;2022-12-10T01:53:51;24.63;;;15.70;;
8423;SDS011;4249;49.072;9.770;2022-12-10T01:56:40;26.70;;;16.47;;
8423;SDS011;4249;49.072;9.770;2022-12-10T01:59:30;25.23;;;15.93;;
8423;SDS011;4249;49.072;9.770;2022-12-10T02:02:20;27.13;;;17.30;;
8423;SDS011;4249;49.072;9.770;2022-12-10T02:05:17;28.93;;;16.90;;
8423;SDS011;4249;49.072;9.770;2022-12-10T02:08:17;24.23;;;16.23;;
8423;SDS011;4249;49.072;9.770;2022-12-10T02:11:14;26.27;;;17.67;;
8423;SDS011;4249;49.072;9.770;2022-12-10T02:14:07;27.03;;;17.47;;
8423;SDS011;4249;49.072;9.770;2022-12-10T02:17:02;25.70;;;15.97;;
8423;SDS011;4249;49.072;9.770;2022-12-10T02:19:56;26.87;;;16.40;;
8423;SDS011;4249;49.072;9.770;2022-12-10T02:22:51;28.60;;;16.63;;
8423;SDS011;4249;49.072;9.770;2022-12-10T02:25:43;24.67;;;15.60;;
8423;SDS011;4249;49.072;9.770;2022-12-10T02:28:42;27.07;;;15.40;;
8423;SDS011;4249;49.072;9.770;2022-12-10T02:31:35;26.87;;;16.97;;
8423;SDS011;4249;49.072;9.770;2022-12-10T02:34:26;25.60;;;15.40;;
8423;SDS011;4249;49.072;9.770;2022-12-10T02:37:17;25.83;;;15.60;;
8423;SDS011;4249;49.072;9.770;2022-12-10T02:40:11;25.93;;;16.57;;
8423;SDS011;4249;49.072;9.770;2022-12-10T02:43:04;27.40;;;17.00;;
8423;SDS011;4249;49.072;9.770;2022-12-10T02:45:52;27.37;;;16.93;;
8423;SDS011;4249;49.072;9.770;2022-12-10T02:48:42;29.57;;;17.33;;
8423;SDS011;4249;49.072;9.770;2022-12-10T02:51:34;28.50;;;17.20;;
8423;SDS011;4249;49.072;9.770;2022-12-10T02:54:34;27.83;;;17.43;;
8423;SDS011;4249;49.072;9.770;2022-12-10T02:57:27;25.20;;;15.97;;
8423;SDS011;4249;49.072;9.770;2022-12-10T03:00:18;28.67;;;17.30;;
8423;SDS011;4249;49.072;9.770;2022-12-10T03:03:20;27.43;;;17.60;;
8423;SDS011;4249;49.072;9.770;2022-12-10T03:06:17;25.40;;;16.20;;
8423;SDS011;4249;49.072;9.770;2022-12-10T03:09:09;30.10;;;17.13;;
8423;SDS011;4249;49.072;9.770;2022-12-10T03:12:06;25.60;;;16.30;;
8423;SDS011;4249;49.072;9.770;2022-12-10T03:15:01;26.67;;;16.30;;
8423;SDS011;4249;49.072;9.770;2022-12-10T03:17:51;27.77;;;16.27;;
8423;SDS011;4249;49.072;9.770;2022-12-10T03:20:41;27.07;;;17.20;;
8423;SDS011;4249;49.072;9.770;2022-12-10T03:23:33;24.90;;;15.47;;
8423;SDS011;4249;49.072;9.770;2022-12-10T03:26:24;25.70;;;15.80;;
8423;SDS011;4249;49.072;9.770;2022-12-10T03:29:13;26.37;;;16.73;;
8423;SDS011;4249;49.072;9.770;2022-12-10T03:32:05;28.80;;;16.93;;
8423;SDS011;4249;49.072;9.770;2022-12-10T03:34:53;26.67;;;17.43;;
8423;SDS011;4249;49.072;9.770;2022-12-10T03:37:42;26.50;;;16.70;;
8423;SDS011;4249;49.072;9.770;2022-12-10T03:40:32;32.40;;;17.80;;
8423;SDS011;4249;49.072;9.770;2022-12-10T03:43:21;28.10;;;17.50;;
8423;SDS011;4249;49.072;9.770;2022-12-10T03:46:08;27.63;;;17.43;;
8423;SDS011;4249;49.072;9.770;2022-12-10T03:48:56;25.27;;;15.93;;
8423;SDS011;4249;49.072;9.770;2022-12-10T03:51:44;24.57;;;17.00;;
8423;SDS011;4249;49.072;9.770;2022-12-10T03:54:31;25.93;;;17.77;;
8423;SDS011;4249;49.072;9.770;2022-12-10T03:57:20;27.80;;;16.97;;
8423;SDS011;4249;49.072;9.770;2022-12-10T04:00:08;27.13;;;17.03;;
8423;SDS011;4249;49.072;9.770;2022-12-10T04:02:56;27.23;;;17.50;;
8423;SDS011;4249;49.072;9.770;2022-12-10T04:05:43;28.97;;;17.17;;
8423;SDS011;4249;49.072;9.770;2022-12-10T04:08:30;28.20;;;17.47;;
8423;SDS011;4249;49.072;9.770;2022-12-10T04:11:18;29.57;;;17.23;;
8423;SDS011;4249;49.072;9.770;2022-12-10T04:14:09;26.77;;;16.73;;
8423;SDS011;4249;49.072;9.770;2022-12-10T04:17:15;33.23;;;18.03;;
8423;SDS011;4249;49.072;9.770;2022-12-10T04:20:03;29.50;;;17.87;;
8423;SDS011;4249;49.072;9.770;2022-12-10T04:23:12;31.90;;;17.70;;
8423;SDS011;4249;49.072;9.770;2022-12-10T04:26:16;29.20;;;17.70;;
8423;SDS011;4249;49.072;9.770;2022-12-10T04:29:23;31.23;;;19.10;;
8423;SDS011;4249;49.072;9.770;2022-12-10T04:32:11;29.10;;;17.43;;
8423;SDS011;4249;49.072;9.770;2022-12-10T04:34:58;26.80;;;17.30;;
8423;SDS011;4249;49.072;9.770;2022-12-10T04:37:46;27.63;;;17.00;;
8423;SDS011;4249;49.072;9.770;2022-12-10T04:40:35;27.67;;;17.37;;
8423;SDS011;4249;49.072;9.770;2022-12-10T04:43:24;31.80;;;20.43;;
8423;SDS011;4249;49.072;9.770;2022-12-10T04:46:14;29.90;;;19.30;;
8423;SDS011;4249;49.072;9.770;2022-12-10T04:49:01;29.07;;;19.20;;
8423;SDS011;4249;49.072;9.770;2022-12-10T04:51:50;32.30;;;19.07;;
8423;SDS011;4249;49.072;9.770;2022-12-10T04:54:38;27.67;;;17.93;;
8423;SDS011;4249;49.072;9.770;2022-12-10T04:57:25;27.33;;;17.50;;
8423;SDS011;4249;49.072;9.770;2022-12-10T05:00:12;29.67;;;18.70;;
8423;SDS011;4249;49.072;9.770;2022-12-10T05:03:01;30.53;;;18.07;;
8423;SDS011;4249;49.072;9.770;2022-12-10T05:05:50;30.80;;;18.00;;
8423;SDS011;4249;49.072;9.770;2022-12-10T05:08:38;28.60;;;17.80;;
8423;SDS011;4249;49.072;9.770;2022-12-10T05:11:28;29.37;;;17.67;;
8423;SDS011;4249;49.072;9.770;2022-12-10T05:14:16;29.63;;;18.40;;
8423;SDS011;4249;49.072;9.770;2022-12-10T05:17:04;27.33;;;16.90;;
8423;SDS011;4249;49.072;9.770;2022-12-10T05:19:52;28.13;;;17.47;;
8423;SDS011;4249;49.072;9.770;2022-12-10T05:22:39;30.60;;;17.90;;
8423;SDS011;4249;49.072;9.770;2022-12-10T05:25:44;25.13;;;16.87;;
8423;SDS011;4249;49.072;9.770;2022-12-10T05:28:39;27.93;;;16.97;;
8423;SDS011;4249;49.072;9.770;2022-12-10T05:31:28;26.20;;;17.30;;
8423;SDS011;4249;49.072;9.770;2022-12-10T05:34:16;27.90;;;16.90;;
8423;SDS011;4249;49.072;9.770;2022-12-10T05:37:04;29.43;;;18.50;;
8423;SDS011;4249;49.072;9.770;2022-12-10T05:39:51;30.37;;;17.53;;
8423;SDS011;4249;49.072;9.770;2022-12-10T05:42:39;29.37;;;17.87;;
8423;SDS011;4249;49.072;9.770;2022-12-10T05:45:26;30.47;;;18.50;;
8423;SDS011;4249;49.072;9.770;2022-12-10T05:48:14;32.60;;;21.90;;
8423;SDS011;4249;49.072;9.770;2022-12-10T05:51:02;30.23;;;20.10;;
8423;SDS011;4249;49.072;9.770;2022-12-10T05:53:52;31.07;;;19.60;;
8423;SDS011;4249;49.072;9.770;2022-12-10T05:56:40;31.57;;;20.83;;
8423;SDS011;4249;49.072;9.770;2022-12-10T05:59:27;30.40;;;18.57;;
8423;SDS011;4249;49.072;9.770;2022-12-10T06:02:14;33.97;;;19.93;;
8423;SDS011;4249;49.072;9.770;2022-12-10T06:05:01;29.90;;;18.30;;
8423;SDS011;4249;49.072;9.770;2022-12-10T06:07:49;32.00;;;19.20;;
8423;SDS011;4249;49.072;9.770;2022-12-10T06:10:37;31.00;;;19.33;;
8423;SDS011;4249;49.072;9.770;2022-12-10T06:13:24;33.03;;;18.60;;
8423;SDS011;4249;49.072;9.770;2022-12-10T06:16:14;35.33;;;20.07;;
8423;SDS011;4249;49.072;9.770;2022-12-10T06:19:02;31.47;;;19.57;;
8423;SDS011;4249;49.072;9.770;2022-12-10T06:21:49;38.07;;;22.10;;
8423;SDS011;4249;49.072;9.770;2022-12-10T06:24:36;29.83;;;19.47;;
8423;SDS011;4249;49.072;9.770;2022-12-10T06:27:24;32.37;;;19.50;;
8423;SDS011;4249;49.072;9.770;2022-12-10T06:30:12;32.87;;;20.10;;
8423;SDS011;4249;49.072;9.770;2022-12-10T06:32:59;36.33;;;21.00;;
8423;SDS011;4249;49.072;9.770;2022-12-10T06:35:47;32.90;;;19.63;;
8423;SDS011;4249;49.072;9.770;2022-12-10T06:38:34;32.03;;;19.40;;
8423;SDS011;4249;49.072;9.770;2022-12-10T06:41:21;31.87;;;19.57;;
8423;SDS011;4249;49.072;9.770;2022-12-10T06:44:10;35.53;;;20.33;;
8423;SDS011;4249;49.072;9.770;2022-12-10T06:46:57;32.10;;;19.30;;
8423;SDS011;4249;49.072;9.770;2022-12-10T06:49:44;36.30;;;19.53;;
8423;SDS011;4249;49.072;9.770;2022-12-10T06:52:31;37.37;;;21.47;;
8423;SDS011;4249;49.072;9.770;2022-12-10T06:55:20;34.30;;;20.33;;
8423;SDS011;4249;49.072;9.770;2022-12-10T06:58:07;33.60;;;21.37;;
8423;SDS011;4249;49.072;9.770;2022-12-10T07:01:01;34.50;;;20.47;;
8423;SDS011;4249;49.072;9.770;2022-12-10T07:03:49;34.87;;;20.53;;
8423;SDS011;4249;49.072;9.770;2022-12-10T07:06:37;33.87;;;19.77;;
8423;SDS011;4249;49.072;9.770;2022-12-10T07:09:24;33.97;;;19.50;;
8423;SDS011;4249;49.072;9.770;2022-12-10T07:12:11;35.90;;;20.73;;
8423;SDS011;4249;49.072;9.770;2022-12-10T07:14:58;36.30;;;20.87;;
8423;SDS011;4249;49.072;9.770;2022-12-10T07:17:47;34.77;;;21.33;;
8423;SDS011;4249;49.072;9.770;2022-12-10T07:20:34;34.83;;;20.97;;
8423;SDS011;4249;49.072;9.770;2022-12-10T07:23:21;35.63;;;22.60;;
8423;SDS011;4249;49.072;9.770;2022-12-10T07:26:08;35.60;;;20.70;;
8423;SDS011;4249;49.072;9.770;2022-12-10T07:28:58;33.37;;;20.53;;
8423;SDS011;4249;49.072;9.770;2022-12-10T07:31:48;31.20;;;19.63;;
8423;SDS011;4249;49.072;9.770;2022-12-10T07:34:36;36.03;;;22.87;;
8423;SDS011;4249;49.072;9.770;2022-12-10T07:37:24;39.20;;;24.57;;
8423;SDS011;4249;49.072;9.770;2022-12-10T07:40:11;38.13;;;23.20;;
8423;SDS011;4249;49.072;9.770;2022-12-10T07:42:58;39.13;;;23.03;;
8423;SDS011;4249;49.072;9.770;2022-12-10T07:45:45;31.73;;;20.43;;
8423;SDS011;4249;49.072;9.770;2022-12-10T07:48:33;41.67;;;23.17;;
8423;SDS011;4249;49.072;9.770;2022-12-10T07:51:23;34.27;;;20.60;;
8423;SDS011;4249;49.072;9.770;2022-12-10T07:54:10;35.60;;;20.90;;
8423;SDS011;4249;49.072;9.770;2022-12-10T07:56:57;29.23;;;19.17;;
8423;SDS011;4249;49.072;9.770;2022-12-10T07:59:44;34.97;;;22.93;;
8423;SDS011;4249;49.072;9.770;2022-12-10T08:02:31;37.30;;;22.00;;
8423;SDS011;4249;49.072;9.770;2022-12-10T08:05:18;35.00;;;22.07;;
8423;SDS011;4249;49.072;9.770;2022-12-10T08:08:07;36.53;;;21.27;;
8423;SDS011;4249;49.072;9.770;2022-12-10T08:10:54;36.00;;;21.97;;
8423;SDS011;4249;49.072;9.770;2022-12-10T08:13:41;34.27;;;21.23;;
8423;SDS011;4249;49.072;9.770;2022-12-10T08:16:29;30.87;;;20.17;;
8423;SDS011;4249;49.072;9.770;2022-12-10T08:19:17;36.30;;;22.53;;
8423;SDS011;4249;49.072;9.770;2022-12-10T08:22:04;35.50;;;21.17;;
8423;SDS011;4249;49.072;9.770;2022-12-10T08:24:53;33.40;;;20.50;;
8423;SDS011;4249;49.072;9.770;2022-12-10T08:27:40;33.13;;;20.63;;
8423;SDS011;4249;49.072;9.770;2022-12-10T08:30:27;34.43;;;21.50;;
8423;SDS011;4249;49.072;9.770;2022-12-10T08:33:14;31.40;;;19.73;;
8423;SDS011;4249;49.072;9.770;2022-12-10T08:36:02;34.13;;;21.60;;
8423;SDS011;4249;49.072;9.770;2022-12-10T08:38:50;31.80;;;20.10;;
8423;SDS011;4249;49.072;9.770;2022-12-10T08:41:39;34.17;;;21.33;;
8423;SDS011;4249;49.072;9.770;2022-12-10T08:44:26;36.40;;;22.87;;
8423;SDS011;4249;49.072;9.770;2022-12-10T08:47:13;35.13;;;21.20;;
8423;SDS011;4249;49.072;9.770;2022-12-10T08:50:00;32.40;;;20.10;;
8423;SDS011;4249;49.072;9.770;2022-12-10T08:52:48;31.40;;;20.20;;
8423;SDS011;4249;49.072;9.770;2022-12-10T08:55:37;32.97;;;21.40;;
8423;SDS011;4249;49.072;9.770;2022-12-10T08:58:26;35.97;;;20.63;;
8423;SDS011;4249;49.072;9.770;2022-12-10T09:01:14;37.47;;;23.60;;
8423;SDS011;4249;49.072;9.770;2022-12-10T09:04:02;44.03;;;26.37;;
8423;SDS011;4249;49.072;9.770;2022-12-10T09:06:49;42.70;;;24.50;;
8423;SDS011;4249;49.072;9.770;2022-12-10T09:09:37;40.47;;;23.30;;
8423;SDS011;4249;49.072;9.770;2022-12-10T09:12:25;40.87;;;23.93;;
8423;SDS011;4249;49.072;9.770;2022-12-10T09:15:13;36.03;;;21.97;;
8423;SDS011;4249;49.072;9.770;2022-12-10T09:18:00;30.67;;;19.13;;
8423;SDS011;4249;49.072;9.770;2022-12-10T09:20:48;31.20;;;20.43;;
8423;SDS011;4249;49.072;9.770;2022-12-10T09:23:35;31.03;;;19.67;;
8423;SDS011;4249;49.072;9.770;2022-12-10T09:26:22;30.77;;;20.13;;
8423;SDS011;4249;49.072;9.770;2022-12-10T09:29:10;31.60;;;20.67;;
8423;SDS011;4249;49.072;9.770;2022-12-10T09:31:58;32.57;;;20.27;;
8423;SDS011;4249;49.072;9.770;2022-12-10T09:34:45;31.77;;;20.13;;
8423;SDS011;4249;49.072;9.770;2022-12-10T09:37:32;27.77;;;18.43;;
8423;SDS011;4249;49.072;9.770;2022-12-10T09:40:21;35.87;;;19.53;;
8423;SDS011;4249;49.072;9.770;2022-12-10T09:43:17;29.03;;;18.87;;
8423;SDS011;4249;49.072;9.770;2022-12-10T09:46:10;33.00;;;20.77;;
8423;SDS011;4249;49.072;9.770;2022-12-10T09:49:10;31.07;;;19.13;;
8423;SDS011;4249;49.072;9.770;2022-12-10T09:52:10;30.87;;;18.97;;
8423;SDS011;4249;49.072;9.770;2022-12-10T09:55:00;31.57;;;20.00;;
8423;SDS011;4249;49.072;9.770;2022-12-10T09:57:50;29.43;;;19.20;;
8423;SDS011;4249;49.072;9.770;2022-12-10T10:00:40;30.77;;;19.50;;
8423;SDS011;4249;49.072;9.770;2022-12-10T10:03:29;33.30;;;20.00;;
8423;SDS011;4249;49.072;9.770;2022-12-10T10:06:22;32.03;;;20.33;;
8423;SDS011;4249;49.072;9.770;2022-12-10T10:09:12;32.47;;;19.67;;
8423;SDS011;4249;49.072;9.770;2022-12-10T10:12:01;33.17;;;18.40;;
8423;SDS011;4249;49.072;9.770;2022-12-10T10:14:49;31.53;;;19.23;;
8423;SDS011;4249;49.072;9.770;2022-12-10T10:17:36;28.50;;;19.53;;
8423;SDS011;4249;49.072;9.770;2022-12-10T10:20:24;32.37;;;20.53;;
8423;SDS011;4249;49.072;9.770;2022-12-10T10:23:15;33.77;;;21.20;;
8423;SDS011;4249;49.072;9.770;2022-12-10T10:26:02;29.23;;;19.23;;
8423;SDS011;4249;49.072;9.770;2022-12-10T10:28:49;34.10;;;20.67;;
8423;SDS011;4249;49.072;9.770;2022-12-10T10:31:41;32.03;;;21.00;;
8423;SDS011;4249;49.072;9.770;2022-12-10T10:34:28;32.70;;;20.90;;
8423;SDS011;4249;49.072;9.770;2022-12-10T10:37:24;31.37;;;19.63;;
8423;SDS011;4249;49.072;9.770;2022-12-10T10:40:22;34.50;;;21.00;;
8423;SDS011;4249;49.072;9.770;2022-12-10T10:43:13;36.07;;;20.73;;
8423;SDS011;4249;49.072;9.770;2022-12-10T10:46:04;31.37;;;20.80;;
8423;SDS011;4249;49.072;9.770;2022-12-10T10:49:12;39.27;;;23.50;;
8423;SDS011;4249;49.072;9.770;2022-12-10T10:52:04;35.87;;;22.50;;
8423;SDS011;4249;49.072;9.770;2022-12-10T10:54:52;31.60;;;20.20;;
8423;SDS011;4249;49.072;9.770;2022-12-10T10:57:41;30.43;;;20.67;;
8423;SDS011;4249;49.072;9.770;2022-12-10T11:00:28;33.87;;;21.20;;
8423;SDS011;4249;49.072;9.770;2022-12-10T11:03:15;33.43;;;19.57;;
8423;SDS011;4249;49.072;9.770;2022-12-10T11:06:04;31.83;;;19.80;;
8423;SDS011;4249;49.072;9.770;2022-12-10T11:08:55;32.20;;;21.27;;
8423;SDS011;4249;49.072;9.770;2022-12-10T11:11:44;30.37;;;19.30;;
8423;SDS011;4249;49.072;9.770;2022-12-10T11:14:39;30.87;;;19.33;;
8423;SDS011;4249;49.072;9.770;2022-12-10T11:17:30;30.40;;;19.47;;
8423;SDS011;4249;49.072;9.770;2022-12-10T11:20:17;31.23;;;20.50;;
8423;SDS011;4249;49.072;9.770;2022-12-10T11:23:08;35.83;;;21.20;;
8423;SDS011;4249;49.072;9.770;2022-12-10T11:26:00;34.13;;;19.90;;
8423;SDS011;4249;49.072;9.770;2022-12-10T11:28:59;30.47;;;19.50;;
8423;SDS011;4249;49.072;9.770;2022-12-10T11:31:58;33.30;;;20.37;;
8423;SDS011;4249;49.072;9.770;2022-12-10T11:34:57;30.30;;;20.20;;
8423;SDS011;4249;49.072;9.770;2022-12-10T11:37:55;33.27;;;20.03;;
8423;SDS011;4249;49.072;9.770;2022-12-10T11:40:50;30.93;;;20.50;;
8423;SDS011;4249;49.072;9.770;2022-12-10T11:43:48;30.80;;;20.47;;
8423;SDS011;4249;49.072;9.770;2022-12-10T11:46:53;33.47;;;19.87;;
8423;SDS011;4249;49.072;9.770;2022-12-10T11:50:10;34.83;;;21.73;;
8423;SDS011;4249;49.072;9.770;2022-12-10T11:56:30;36.07;;;21.73;;
8423;SDS011;4249;49.072;9.770;2022-12-10T11:59:22;35.33;;;20.80;;
8423;SDS011;4249;49.072;9.770;2022-12-10T12:05:36;32.40;;;20.50;;
8423;SDS011;4249;49.072;9.770;2022-12-10T12:08:38;34.33;;;19.57;;
8423;SDS011;4249;49.072;9.770;2022-12-10T12:11:36;34.70;;;20.37;;
8423;SDS011;4249;49.072;9.770;2022-12-10T12:14:36;31.37;;;18.97;;
8423;SDS011;4249;49.072;9.770;2022-12-10T12:17:30;32.63;;;20.67;;
8423;SDS011;4249;49.072;9.770;2022-12-10T12:20:26;32.80;;;19.57;;
8423;SDS011;4249;49.072;9.770;2022-12-10T12:23:17;32.30;;;19.00;;
8423;SDS011;4249;49.072;9.770;2022-12-10T12:26:10;34.23;;;20.10;;
8423;SDS011;4249;49.072;9.770;2022-12-10T12:29:02;31.47;;;19.40;;
8423;SDS011;4249;49.072;9.770;2022-12-10T12:32:01;28.13;;;18.07;;
8423;SDS011;4249;49.072;9.770;2022-12-10T12:34:52;29.87;;;18.73;;
8423;SDS011;4249;49.072;9.770;2022-12-10T12:37:46;30.37;;;18.60;;
8423;SDS011;4249;49.072;9.770;2022-12-10T12:40:40;29.77;;;18.63;;
8423;SDS011;4249;49.072;9.770;2022-12-10T12:43:34;31.30;;;19.50;;
8423;SDS011;4249;49.072;9.770;2022-12-10T12:46:38;30.30;;;19.33;;
8423;SDS011;4249;49.072;9.770;2022-12-10T12:49:29;30.40;;;18.97;;
8423;SDS011;4249;49.072;9.770;2022-12-10T12:52:25;27.83;;;17.57;;
8423;SDS011;4249;49.072;9.770;2022-12-10T12:55:19;24.27;;;16.00;;
8423;SDS011;4249;49.072;9.770;2022-12-10T12:58:11;24.37;;;15.73;;
8423;SDS011;4249;49.072;9.770;2022-12-10T13:01:10;20.70;;;14.33;;
8423;SDS011;4249;49.072;9.770;2022-12-10T13:04:05;23.63;;;14.97;;
8423;SDS011;4249;49.072;9.770;2022-12-10T13:07:09;26.40;;;16.17;;
8423;SDS011;4249;49.072;9.770;2022-12-10T13:10:24;24.60;;;15.67;;
8423;SDS011;4249;49.072;9.770;2022-12-10T13:16:34;29.13;;;18.33;;
8423;SDS011;4249;49.072;9.770;2022-12-10T13:19:31;26.60;;;16.67;;
8423;SDS011;4249;49.072;9.770;2022-12-10T13:25:42;27.57;;;17.53;;
8423;SDS011;4249;49.072;9.770;2022-12-10T13:28:48;26.93;;;16.30;;
8423;SDS011;4249;49.072;9.770;2022-12-10T13:31:37;29.03;;;16.83;;
8423;SDS011;4249;49.072;9.770;2022-12-10T13:34:33;25.63;;;15.63;;
8423;SDS011;4249;49.072;9.770;2022-12-10T13:37:28;30.87;;;17.73;;
8423;SDS011;4249;49.072;9.770;2022-12-10T13:40:24;25.67;;;15.93;;
8423;SDS011;4249;49.072;9.770;2022-12-10T13:43:37;24.00;;;15.60;;
8423;SDS011;4249;49.072;9.770;2022-12-10T13:46:23;25.97;;;16.60;;
8423;SDS011;4249;49.072;9.770;2022-12-10T13:48:52;25.47;;;15.47;;
8423;SDS011;4249;49.072;9.770;2022-12-10T13:51:30;25.57;;;15.97;;
8423;SDS011;4249;49.072;9.770;2022-12-10T13:54:16;25.37;;;15.70;;
8423;SDS011;4249;49.072;9.770;2022-12-10T13:57:08;25.50;;;15.67;;
8423;SDS011;4249;49.072;9.770;2022-12-10T13:59:48;23.00;;;15.33;;
8423;SDS011;4249;49.072;9.770;2022-12-10T14:02:28;29.00;;;16.83;;
8423;SDS011;4249;49.072;9.770;2022-12-10T14:05:11;23.33;;;15.00;;
8423;SDS011;4249;49.072;9.770;2022-12-10T14:07:50;24.23;;;15.43;;
8423;SDS011;4249;49.072;9.770;2022-12-10T14:10:20;20.70;;;13.67;;
8423;SDS011;4249;49.072;9.770;2022-12-10T14:12:52;24.43;;;14.77;;
8423;SDS011;4249;49.072;9.770;2022-12-10T14:15:21;24.37;;;15.27;;
8423;SDS011;4249;49.072;9.770;2022-12-10T14:17:52;23.67;;;15.77;;
8423;SDS011;4249;49.072;9.770;2022-12-10T14:20:25;23.63;;;15.33;;
8423;SDS011;4249;49.072;9.770;2022-12-10T14:22:53;22.77;;;15.50;;
8423;SDS011;4249;49.072;9.770;2022-12-10T14:25:42;25.33;;;15.67;;
8423;SDS011;4249;49.072;9.770;2022-12-10T14:28:11;28.50;;;15.97;;
8423;SDS011;4249;49.072;9.770;2022-12-10T14:30:43;27.27;;;16.23;;
8423;SDS011;4249;49.072;9.770;2022-12-10T14:33:12;28.03;;;17.23;;
8423;SDS011;4249;49.072;9.770;2022-12-10T14:35:42;24.57;;;15.27;;
8423;SDS011;4249;49.072;9.770;2022-12-10T14:38:16;25.03;;;16.07;;
8423;SDS011;4249;49.072;9.770;2022-12-10T14:40:46;28.43;;;16.90;;
8423;SDS011;4249;49.072;9.770;2022-12-10T14:43:15;24.93;;;16.40;;
8423;SDS011;4249;49.072;9.770;2022-12-10T14:45:47;25.60;;;16.40;;
8423;SDS011;4249;49.072;9.770;2022-12-10T14:48:17;28.23;;;17.33;;
8423;SDS011;4249;49.072;9.770;2022-12-10T14:50:45;38.63;;;21.77;;
8423;SDS011;4249;49.072;9.770;2022-12-10T14:53:13;37.67;;;21.63;;
8423;SDS011;4249;49.072;9.770;2022-12-10T14:55:42;24.63;;;16.90;;
8423;SDS011;4249;49.072;9.770;2022-12-10T14:58:13;25.37;;;17.00;;
8423;SDS011;4249;49.072;9.770;2022-12-10T15:00:43;26.23;;;16.80;;
8423;SDS011;4249;49.072;9.770;2022-12-10T15:03:17;27.47;;;16.73;;
8423;SDS011;4249;49.072;9.770;2022-12-10T15:05:53;26.17;;;16.83;;
8423;SDS011;4249;49.072;9.770;2022-12-10T15:08:22;29.27;;;16.83;;
8423;SDS011;4249;49.072;9.770;2022-12-10T15:10:51;31.13;;;18.30;;
8423;SDS011;4249;49.072;9.770;2022-12-10T15:13:22;25.80;;;16.73;;
8423;SDS011;4249;49.072;9.770;2022-12-10T15:15:54;28.27;;;17.03;;
8423;SDS011;4249;49.072;9.770;2022-12-10T15:18:25;23.73;;;15.47;;
8423;SDS011;4249;49.072;9.770;2022-12-10T15:20:54;26.43;;;16.73;;
8423;SDS011;4249;49.072;9.770;2022-12-10T15:23:32;27.20;;;15.63;;
8423;SDS011;4249;49.072;9.770;2022-12-10T15:26:20;24.07;;;15.20;;
8423;SDS011;4249;49.072;9.770;2022-12-10T15:29:30;25.17;;;14.87;;
8423;SDS011;4249;49.072;9.770;2022-12-10T15:32:20;27.47;;;14.83;;
8423;SDS011;4249;49.072;9.770;2022-12-10T15:35:13;26.33;;;15.80;;
8423;SDS011;4249;49.072;9.770;2022-12-10T15:38:01;23.90;;;15.40;;
8423;SDS011;4249;49.072;9.770;2022-12-10T15:40:48;24.27;;;14.30;;
8423;SDS011;4249;49.072;9.770;2022-12-10T15:43:38;20.53;;;14.40;;
8423;SDS011;4249;49.072;9.770;2022-12-10T15:46:46;22.80;;;15.10;;
8423;SDS011;4249;49.072;9.770;2022-12-10T15:49:36;24.53;;;14.83;;
8423;SDS011;4249;49.072;9.770;2022-12-10T15:52:25;24.17;;;15.63;;
8423;SDS011;4249;49.072;9.770;2022-12-10T15:55:14;24.40;;;15.20;;
8423;SDS011;4249;49.072;9.770;2022-12-10T15:58:04;22.40;;;13.57;;
8423;SDS011;4249;49.072;9.770;2022-12-10T16:00:55;19.87;;;13.40;;
8423;SDS011;4249;49.072;9.770;2022-12-10T16:03:42;23.67;;;14.37;;
8423;SDS011;4249;49.072;9.770;2022-12-10T16:06:29;23.83;;;14.10;;
8423;SDS011;4249;49.072;9.770;2022-12-10T16:09:19;23.40;;;13.80;;
8423;SDS011;4249;49.072;9.770;2022-12-10T16:12:07;24.53;;;15.00;;
8423;SDS011;4249;49.072;9.770;2022-12-10T16:14:56;21.93;;;14.20;;
8423;SDS011;4249;49.072;9.770;2022-12-10T16:17:45;22.43;;;14.03;;
8423;SDS011;4249;49.072;9.770;2022-12-10T16:20:32;22.30;;;13.97;;
8423;SDS011;4249;49.072;9.770;2022-12-10T16:23:19;20.57;;;13.27;;
8423;SDS011;4249;49.072;9.770;2022-12-10T16:26:13;21.30;;;14.33;;
8423;SDS011;4249;49.072;9.770;2022-12-10T16:29:03;22.20;;;13.90;;
8423;SDS011;4249;49.072;9.770;2022-12-10T16:31:50;25.50;;;15.53;;
8423;SDS011;4249;49.072;9.770;2022-12-10T16:34:37;21.43;;;12.70;;
8423;SDS011;4249;49.072;9.770;2022-12-10T16:37:25;22.47;;;13.17;;
8423;SDS011;4249;49.072;9.770;2022-12-10T16:40:14;21.40;;;13.33;;
8423;SDS011;4249;49.072;9.770;2022-12-10T16:43:04;19.90;;;11.93;;
8423;SDS011;4249;49.072;9.770;2022-12-10T16:45:52;20.50;;;13.00;;
8423;SDS011;4249;49.072;9.770;2022-12-10T16:48:41;18.30;;;12.37;;
8423;SDS011;4249;49.072;9.770;2022-12-10T16:51:28;20.53;;;12.87;;
8423;SDS011;4249;49.072;9.770;2022-12-10T16:54:16;22.50;;;13.30;;
8423;SDS011;4249;49.072;9.770;2022-12-10T16:57:04;20.23;;;12.80;;
8423;SDS011;4249;49.072;9.770;2022-12-10T16:59:56;20.63;;;13.70;;
8423;SDS011;4249;49.072;9.770;2022-12-10T17:02:43;21.47;;;13.17;;
8423;SDS011;4249;49.072;9.770;2022-12-10T17:05:31;18.73;;;12.27;;
8423;SDS011;4249;49.072;9.770;2022-12-10T17:08:22;21.77;;;13.87;;
8423;SDS011;4249;49.072;9.770;2022-12-10T17:11:13;21.47;;;13.70;;